Time;durP1;ratioP1;P1;durP2;ratioP2;P2;SDS_P1;SDS_P2;PMS_P1;PMS_P2;Temp;Humidity;BMP_temperature;BMP_pressure;BME280_temperature;BME280_humidity;BME280_pressure;Samples;Min_cycle;Max_cycle;Signal;HPM_P1;HPM_P2
2023/08/07 13:13:08;;;;;;;6.25;2.60;;;;;;;17.91;87.10;101538.63;5103453;27;1259038;-75
2023/08/07 13:15:36;;;;;;;5.10;2.25;;;;;;;18.37;90.40;101535.47;5130160;28;20031;-80
2023/08/07 13:18:03;;;;;;;5.78;2.60;;;;;;;18.32;72.09;101540.94;5130754;28;20039;-77
2023/08/07 13:20:33;;;;;;;6.28;2.50;;;;;;;18.10;71.35;101539.09;5128978;28;20031;-76
2023/08/07 13:22:58;;;;;;;3.33;2.00;;;;;;;18.20;69.14;101555.59;5111133;28;20027;-76
2023/08/07 13:25:24;;;;;;;3.97;1.83;;;;;;;18.21;70.57;101535.34;5129928;28;20489;-77
2023/08/07 13:27:49;;;;;;;6.57;2.00;;;;;;;18.21;72.01;101540.00;5128999;28;20038;-78
2023/08/07 13:30:14;;;;;;;5.55;2.10;;;;;;;18.32;75.21;101547.22;5091693;28;20600;-80
2023/08/07 13:32:39;;;;;;;6.50;2.22;;;;;;;18.17;72.94;101549.81;5102038;28;20107;-76
2023/08/07 13:35:05;;;;;;;3.55;1.90;;;;;;;18.04;72.90;101549.16;5096323;28;20475;-80
2023/08/07 13:37:31;;;;;;;5.15;1.92;;;;;;;17.97;72.37;101547.72;5090546;28;20030;-80
2023/08/07 13:39:57;;;;;;;5.43;1.98;;;;;;;18.14;71.60;101539.38;5110174;28;20031;-79
2023/08/07 13:42:27;;;;;;;4.70;2.00;;;;;;;18.10;69.41;101541.81;5108937;28;20400;-78
2023/08/07 13:44:52;;;;;;;3.30;1.98;;;;;;;18.03;74.96;101538.47;5109061;28;20024;-83
2023/08/07 13:47:20;;;;;;;2.88;1.80;;;;;;;17.97;72.13;101548.53;5090740;28;20355;-81
2023/08/07 13:49:48;;;;;;;4.03;1.90;;;;;;;17.91;75.70;101546.00;5109427;28;20410;-80
2023/08/07 13:52:14;;;;;;;2.13;1.75;;;;;;;17.78;75.23;101542.53;5086807;28;20028;-79
2023/08/07 13:54:39;;;;;;;3.40;1.80;;;;;;;17.61;76.62;101553.56;5105134;28;20493;-77
2023/08/07 13:57:05;;;;;;;4.60;1.80;;;;;;;17.48;82.78;101554.78;5108179;28;20130;-79
2023/08/07 13:59:31;;;;;;;4.65;1.95;;;;;;;17.39;86.57;101548.06;5091210;28;20107;-76
2023/08/07 14:01:56;;;;;;;5.22;2.10;;;;;;;17.31;88.41;101559.47;5086329;28;20122;-76
2023/08/07 14:04:22;;;;;;;4.78;2.30;;;;;;;17.25;86.00;101571.44;5098410;28;20047;-75
2023/08/07 14:06:47;;;;;;;5.63;2.40;;;;;;;17.17;90.21;101576.25;5110530;28;20034;-77
2023/08/07 15:11:47;;;;;;;2.38;1.63;;;;;;;17.75;73.49;101569.59;4870602;29;20354;-80
2023/08/07 15:14:12;;;;;;;3.15;1.48;;;;;;;17.69;74.71;101569.56;4872853;29;20052;-79
2023/08/07 15:16:38;;;;;;;4.15;1.50;;;;;;;17.74;76.47;101566.06;4877250;29;20064;-80
2023/08/07 15:19:03;;;;;;;2.58;1.70;;;;;;;17.74;76.40;101568.78;4863939;29;20053;-85
2023/08/07 15:21:30;;;;;;;3.25;1.63;;;;;;;17.70;74.25;101567.63;4864376;29;20040;-82
2023/08/07 15:23:55;;;;;;;4.72;1.58;;;;;;;17.65;77.95;101571.13;4867013;29;20032;-81
2023/08/07 15:26:24;;;;;;;3.70;1.60;;;;;;;17.73;75.65;101569.03;4865159;29;20055;-83
2023/08/07 15:28:51;;;;;;;3.28;1.40;;;;;;;18.30;74.81;101567.75;4875186;29;20480;-83
2023/08/07 15:31:17;;;;;;;3.22;1.40;;;;;;;18.44;70.79;101577.19;4873500;29;20040;-82
2023/08/07 15:33:47;;;;;;;5.68;1.50;;;;;;;19.04;68.15;101566.19;4880179;29;20089;-84
2023/08/07 15:36:12;;;;;;;3.97;1.40;;;;;;;19.71;65.43;101574.75;4874540;29;20040;-80
2023/08/07 15:38:38;;;;;;;2.83;1.30;;;;;;;20.35;60.82;101581.78;4873008;29;20037;-81
2023/08/07 15:41:04;;;;;;;2.63;1.23;;;;;;;20.81;57.72;101578.25;4863787;29;20093;-80
2023/08/07 15:43:29;;;;;;;2.28;1.27;;;;;;;20.88;55.02;101581.56;4862848;29;20420;-83
2023/08/07 15:45:54;;;;;;;1.35;1.25;;;;;;;21.20;56.06;101585.91;4880049;29;20416;-81
2023/08/07 15:48:20;;;;;;;2.72;1.15;;;;;;;21.19;53.63;101578.75;4887265;29;20076;-82
2023/08/07 15:50:46;;;;;;;3.50;1.30;;;;;;;21.48;54.70;101564.34;4878201;29;20128;-82
2023/08/07 15:53:11;;;;;;;2.65;1.13;;;;;;;21.62;53.70;101581.09;4879074;29;20244;-81
2023/08/07 15:55:37;;;;;;;1.88;0.98;;;;;;;21.02;53.99;101582.63;4872521;29;20029;-84
2023/08/07 15:58:04;;;;;;;1.10;0.98;;;;;;;20.24;56.99;101583.69;4854188;29;20033;-83
2023/08/07 16:00:33;;;;;;;2.38;1.13;;;;;;;19.64;58.83;101589.56;4868212;29;20116;-81
2023/08/07 16:02:59;;;;;;;2.35;1.20;;;;;;;19.26;62.30;101575.09;4894569;29;20056;-82
2023/08/07 16:05:24;;;;;;;2.60;1.23;;;;;;;19.00;60.77;101578.78;4895440;29;20083;-82
2023/08/07 16:07:50;;;;;;;2.67;1.00;;;;;;;18.98;63.60;101575.44;4892234;29;20040;-83
2023/08/07 16:10:16;;;;;;;4.57;1.45;;;;;;;19.13;61.89;101575.56;4908386;29;20096;-82
2023/08/07 16:12:42;;;;;;;1.98;1.20;;;;;;;19.06;64.05;101569.47;4909596;29;20531;-84
2023/08/07 16:15:07;;;;;;;2.28;1.20;;;;;;;18.94;64.11;101565.00;4916887;29;20036;-84
2023/08/07 16:17:32;;;;;;;1.27;0.98;;;;;;;18.80;68.39;101565.72;4915446;29;20043;-84
2023/08/07 16:19:58;;;;;;;1.77;1.20;;;;;;;18.68;70.53;101563.97;4899037;29;20526;-82
2023/08/07 16:22:23;;;;;;;5.20;1.20;;;;;;;18.56;69.45;101569.63;4904644;29;20388;-82
2023/08/07 16:24:48;;;;;;;2.25;1.17;;;;;;;18.52;69.76;101567.69;4914725;29;20168;-83
2023/08/07 16:27:14;;;;;;;2.63;1.02;;;;;;;18.60;68.94;101562.53;4916025;29;20084;-80
2023/08/07 16:29:39;;;;;;;3.08;1.23;;;;;;;18.56;68.75;101558.66;4913098;29;20063;-84
2023/08/07 16:32:06;;;;;;;2.10;0.98;;;;;;;18.57;69.84;101543.88;4898845;29;20038;-81
2023/08/07 16:34:33;;;;;;;2.95;1.10;;;;;;;18.62;68.82;101562.28;4899637;29;20535;-82
2023/08/07 16:36:58;;;;;;;2.15;1.10;;;;;;;18.66;70.41;101562.56;4907036;29;20095;-83
2023/08/07 16:39:23;;;;;;;3.53;0.88;;;;;;;18.69;70.90;101554.66;4897718;29;20040;-81
2023/08/07 16:41:49;;;;;;;3.22;1.08;;;;;;;18.74;66.37;101554.69;4898563;29;20040;-86
2023/08/07 16:44:14;;;;;;;3.45;1.30;;;;;;;18.55;68.22;101545.22;4912423;29;20035;-83
2023/08/07 16:46:39;;;;;;;3.47;1.10;;;;;;;18.49;70.06;101546.28;4912264;29;20055;-82
2023/08/07 16:49:05;;;;;;;2.85;1.17;;;;;;;18.41;71.85;101544.84;4916763;29;20124;-76
2023/08/07 16:51:32;;;;;;;2.58;1.10;;;;;;;18.30;68.46;101543.06;4916993;29;20035;-79
2023/08/07 16:53:58;;;;;;;2.33;1.17;;;;;;;18.28;69.67;101543.34;4914640;29;20047;-80
2023/08/07 16:56:23;;;;;;;3.55;1.10;;;;;;;18.13;68.88;101545.94;4919473;29;20032;-78
2023/08/07 16:58:50;;;;;;;1.88;0.85;;;;;;;18.07;68.91;101545.06;4903120;29;20031;-82
2023/08/07 17:01:16;;;;;;;2.03;1.10;;;;;;;17.95;70.23;101536.16;4906100;29;20049;-88
2023/08/07 17:03:41;;;;;;;2.42;0.95;;;;;;;17.94;73.30;101537.28;4896259;29;20029;-84
2023/08/07 17:06:06;;;;;;;2.40;1.00;;;;;;;17.89;73.14;101536.13;4897780;29;20048;-85
2023/08/07 17:08:32;;;;;;;2.47;0.80;;;;;;;17.93;72.67;101543.81;4896553;29;20490;-84
2023/08/07 17:10:57;;;;;;;2.00;0.80;;;;;;;17.94;73.40;101545.50;4874662;29;20083;-83
2023/08/07 17:13:23;;;;;;;2.25;1.00;;;;;;;17.99;73.08;101549.09;4891875;29;20104;-83
2023/08/07 17:15:49;;;;;;;2.50;0.90;;;;;;;17.93;73.04;101557.53;4883218;29;20033;-83
2023/08/07 17:18:15;;;;;;;2.05;0.85;;;;;;;17.89;70.89;101555.28;4861571;29;20068;-84
2023/08/07 17:20:40;;;;;;;2.13;1.10;;;;;;;17.84;71.17;101546.97;4878556;29;20037;-86
2023/08/07 17:23:05;;;;;;;1.60;1.00;;;;;;;17.96;71.42;101537.84;4876567;29;20072;-79
2023/08/07 17:25:31;;;;;;;3.47;1.40;;;;;;;17.93;73.05;101544.66;4860498;29;20033;-80
2023/08/07 17:27:57;;;;;;;2.28;1.20;;;;;;;17.92;73.14;101542.16;4880055;29;20033;-78
2023/08/07 17:30:22;;;;;;;2.28;1.10;;;;;;;17.92;71.73;101543.00;4880019;29;20119;-82
2023/08/07 17:32:48;;;;;;;3.72;1.10;;;;;;;17.91;70.01;101546.81;4881300;29;20036;-78
2023/08/07 17:35:13;;;;;;;1.92;0.80;;;;;;;17.85;71.12;101551.38;4889293;29;20088;-78
2023/08/07 17:37:38;;;;;;;2.00;0.90;;;;;;;17.76;73.56;101536.50;4904772;29;20040;-76
2023/08/07 17:40:04;;;;;;;2.15;1.00;;;;;;;17.80;77.08;101537.66;4879684;29;20037;-77
2023/08/07 17:42:30;;;;;;;1.55;0.90;;;;;;;17.83;76.08;101542.59;4876834;29;20696;-78
2023/08/07 17:44:56;;;;;;;2.22;1.13;;;;;;;17.84;76.37;101544.25;4877465;29;20029;-78
2023/08/07 17:47:21;;;;;;;4.82;1.40;;;;;;;17.83;76.85;101536.28;4876821;29;20037;-77
2023/08/07 17:49:47;;;;;;;3.00;1.20;;;;;;;17.79;74.87;101530.50;4877355;29;20029;-79
2023/08/07 17:52:12;;;;;;;3.53;1.38;;;;;;;17.69;75.26;101542.19;4876257;29;20195;-78
2023/08/07 17:54:37;;;;;;;3.97;1.50;;;;;;;17.67;76.62;101529.81;4869654;29;20048;-79
2023/08/07 17:57:03;;;;;;;1.80;1.10;;;;;;;17.61;80.12;101536.31;4877975;29;20496;-82
2023/08/07 17:59:29;;;;;;;3.20;1.50;;;;;;;17.47;83.14;101536.72;4875293;29;20104;-82
2023/08/07 18:01:54;;;;;;;3.90;1.33;;;;;;;17.42;84.26;101533.91;4864773;29;20389;-83
2023/08/07 18:04:20;;;;;;;2.65;1.30;;;;;;;17.33;87.73;101533.53;4867453;29;20094;-84
2023/08/07 18:06:45;;;;;;;3.55;1.52;;;;;;;17.29;90.28;101539.75;4896153;29;20036;-84
2023/08/07 18:09:11;;;;;;;4.65;1.65;;;;;;;17.21;91.46;101537.44;4894663;29;20100;-83
2023/08/07 18:11:37;;;;;;;6.38;1.65;;;;;;;17.10;95.55;101534.56;4896866;29;20075;-84
2023/08/07 18:14:13;;;;;;;2.80;1.70;;;;;;;17.09;94.09;101546.59;4880595;29;20120;-85
2023/08/07 18:16:38;;;;;;;3.30;1.55;;;;;;;16.99;90.46;101536.34;4895051;29;20047;-83
2023/08/07 18:19:03;;;;;;;4.20;1.63;;;;;;;16.87;91.67;101530.16;4899537;29;20032;-84
2023/08/07 18:21:29;;;;;;;3.80;1.40;;;;;;;16.83;92.54;101543.47;4877852;29;20504;-84
2023/08/07 18:23:54;;;;;;;3.95;1.88;;;;;;;16.76;95.25;101542.81;4875223;29;20068;-83
2023/08/07 18:26:19;;;;;;;3.35;1.45;;;;;;;16.71;92.21;101537.25;4898823;29;20056;-84
2023/08/07 18:28:44;;;;;;;3.15;1.50;;;;;;;16.63;99.01;101532.22;4879228;29;20078;-82
2023/08/07 18:31:10;;;;;;;4.00;1.55;;;;;;;16.62;97.57;101546.94;4896538;29;20483;-82
2023/08/07 18:33:35;;;;;;;3.90;1.70;;;;;;;16.60;99.50;101538.16;4899640;29;20028;-84
2023/08/07 18:36:02;;;;;;;2.50;1.40;;;;;;;16.56;100.00;101535.13;4887143;29;20177;-85
2023/08/07 18:38:28;;;;;;;3.95;1.50;;;;;;;16.56;100.00;101537.84;4898912;29;20033;-85
2023/08/07 18:40:53;;;;;;;8.50;1.73;;;;;;;16.50;100.00;101527.91;4896057;29;20040;-84
2023/08/07 18:43:19;;;;;;;2.83;1.40;;;;;;;16.49;100.00;101526.25;4898228;29;20056;-83
2023/08/07 18:45:44;;;;;;;4.18;1.60;;;;;;;16.48;100.00;101530.06;4898556;29;20123;-83
2023/08/07 18:48:10;;;;;;;4.18;1.80;;;;;;;16.45;100.00;101523.16;4896593;29;20091;-85
2023/08/07 18:50:35;;;;;;;3.55;1.52;;;;;;;16.43;100.00;101525.34;4880336;29;20058;-82
2023/08/07 18:53:01;;;;;;;2.30;1.38;;;;;;;16.41;100.00;101516.56;4875026;29;20047;-80
2023/08/07 18:55:26;;;;;;;7.90;1.60;;;;;;;16.38;100.00;101513.50;4896820;29;20096;-83
2023/08/07 18:57:51;;;;;;;4.13;1.65;;;;;;;16.34;100.00;101507.69;4880307;29;20456;-83
2023/08/07 19:00:17;;;;;;;5.32;1.75;;;;;;;16.29;100.00;101508.44;4880036;29;20543;-81
2023/08/07 19:02:43;;;;;;;6.28;1.67;;;;;;;16.27;100.00;101507.88;4879445;29;20571;-83
2023/08/07 19:05:08;;;;;;;5.63;1.92;;;;;;;16.21;100.00;101510.75;4897307;29;20044;-83
2023/08/07 19:07:34;;;;;;;2.60;1.67;;;;;;;16.19;100.00;101510.19;4881048;29;20390;-84
2023/08/07 19:09:59;;;;;;;4.00;1.80;;;;;;;16.16;100.00;101516.13;4881304;29;20088;-84
2023/08/07 19:12:25;;;;;;;4.55;1.90;;;;;;;16.08;100.00;101512.72;4897505;29;20087;-85
2023/08/07 19:15:05;;;;;;;4.20;1.83;;;;;;;16.07;100.00;101512.97;4867969;29;20033;-84
2023/08/07 19:17:47;;;;;;;3.70;1.98;;;;;;;16.05;100.00;101509.66;4895662;29;20056;-80
2023/08/07 19:20:17;;;;;;;3.17;1.58;;;;;;;16.02;100.00;101513.72;4900864;29;20043;-82
2023/08/07 19:22:42;;;;;;;4.75;1.58;;;;;;;16.01;100.00;101505.75;4894617;29;20055;-82
2023/08/07 19:28:29;;;;;;;6.93;1.98;;;;;;;15.93;100.00;101512.47;4896310;29;20430;-84
2023/08/07 19:30:58;;;;;;;4.95;1.88;;;;;;;15.89;100.00;101511.28;4880115;29;20024;-83
2023/08/07 19:34:07;;;;;;;3.90;1.80;;;;;;;15.89;100.00;101514.81;4879403;29;20028;-81
2023/08/07 19:36:32;;;;;;;4.85;1.98;;;;;;;15.77;100.00;101503.97;4897522;29;20028;-82
2023/08/07 19:38:58;;;;;;;4.72;1.80;;;;;;;15.74;100.00;101498.97;4893106;29;20412;-82
2023/08/07 19:41:26;;;;;;;4.15;2.10;;;;;;;15.79;100.00;101506.44;4892255;29;20040;-84
2023/08/07 19:43:52;;;;;;;4.30;2.00;;;;;;;15.73;100.00;101502.78;4898940;29;20026;-82
2023/08/07 19:46:18;;;;;;;3.70;2.13;;;;;;;15.74;100.00;101503.59;4890932;29;20123;-83
2023/08/07 19:49:10;;;;;;;3.65;1.75;;;;;;;15.72;100.00;101500.28;4897689;29;20112;-82
2023/08/07 19:51:45;;;;;;;;;;;;;;;;;;;;;
2023/08/07 19:54:11;;;;;;;3.30;1.83;;;;;;;15.65;100.00;101494.97;4891610;29;20386;-83
2023/08/07 19:56:46;;;;;;;;;;;;;;;;;;;;;
2023/08/07 19:59:52;;;;;;;2.53;1.88;;;;;;;15.67;100.00;101497.44;4891531;29;20047;-86
2023/08/07 20:02:47;;;;;;;3.33;1.50;;;;;;;15.62;100.00;101495.44;4893157;29;20480;-85
2023/08/07 20:05:15;;;;;;;2.42;1.60;;;;;;;15.55;100.00;101492.03;4878111;29;20045;-83
2023/08/07 20:07:49;;;;;;;2.30;1.73;;;;;;;15.43;100.00;101489.38;4896615;29;20047;-84
2023/08/07 20:10:22;;;;;;;2.75;1.65;;;;;;;15.45;100.00;101481.75;4897001;29;20072;-85
2023/08/07 20:12:49;;;;;;;5.13;1.83;;;;;;;15.34;100.00;101478.00;4873325;29;20068;-84
2023/08/07 20:15:15;;;;;;;3.70;1.60;;;;;;;15.28;100.00;101480.84;4875994;29;20111;-81
2023/08/07 20:17:41;;;;;;;3.78;1.77;;;;;;;15.30;100.00;101482.28;4889544;29;20036;-82
2023/08/07 20:20:07;;;;;;;3.63;1.80;;;;;;;15.22;100.00;101475.31;4897396;29;20040;-81
2023/08/07 20:22:32;;;;;;;3.88;2.03;;;;;;;15.21;100.00;101479.09;4897719;29;20039;-80
2023/08/07 20:24:58;;;;;;;2.00;1.80;;;;;;;15.16;100.00;101480.91;4895502;29;20047;-83
2023/08/07 20:27:23;;;;;;;4.43;1.80;;;;;;;15.11;100.00;101478.88;4895454;29;20111;-82
